sensor_id;sensor_type;location;lat;lon;timestamp;P1;durP1;ratioP1;P2;durP2;ratioP2
42066;SDS011;27734;47.028;28.820;2022-11-22T00:01:57;15.80;;;7.60;;
42066;SDS011;27734;47.028;28.820;2022-11-22T00:04:28;16.67;;;7.77;;
42066;SDS011;27734;47.028;28.820;2022-11-22T00:06:59;16.57;;;7.60;;
42066;SDS011;27734;47.028;28.820;2022-11-22T00:09:30;18.40;;;7.90;;
42066;SDS011;27734;47.028;28.820;2022-11-22T00:12:01;16.90;;;8.43;;
42066;SDS011;27734;47.028;28.820;2022-11-22T00:14:33;18.87;;;8.10;;
42066;SDS011;27734;47.028;28.820;2022-11-22T00:17:04;17.80;;;8.03;;
42066;SDS011;27734;47.028;28.820;2022-11-22T00:19:35;17.40;;;7.97;;
42066;SDS011;27734;47.028;28.820;2022-11-22T00:22:07;20.43;;;9.43;;
42066;SDS011;27734;47.028;28.820;2022-11-22T00:24:38;19.20;;;9.77;;
42066;SDS011;27734;47.028;28.820;2022-11-22T00:27:10;19.80;;;9.00;;
42066;SDS011;27734;47.028;28.820;2022-11-22T00:29:42;18.73;;;8.93;;
42066;SDS011;27734;47.028;28.820;2022-11-22T00:32:13;18.80;;;8.30;;
42066;SDS011;27734;47.028;28.820;2022-11-22T00:34:44;19.10;;;8.83;;
42066;SDS011;27734;47.028;28.820;2022-11-22T00:37:15;18.50;;;8.63;;
42066;SDS011;27734;47.028;28.820;2022-11-22T00:39:46;17.87;;;8.83;;
42066;SDS011;27734;47.028;28.820;2022-11-22T00:42:18;17.40;;;8.23;;
42066;SDS011;27734;47.028;28.820;2022-11-22T00:44:49;20.60;;;9.50;;
42066;SDS011;27734;47.028;28.820;2022-11-22T00:47:20;21.00;;;9.90;;
42066;SDS011;27734;47.028;28.820;2022-11-22T00:49:51;20.97;;;9.87;;
42066;SDS011;27734;47.028;28.820;2022-11-22T00:52:22;24.53;;;11.03;;
42066;SDS011;27734;47.028;28.820;2022-11-22T00:54:53;24.80;;;11.07;;
42066;SDS011;27734;47.028;28.820;2022-11-22T00:57:24;24.00;;;11.67;;
42066;SDS011;27734;47.028;28.820;2022-11-22T00:59:55;25.33;;;12.33;;
42066;SDS011;27734;47.028;28.820;2022-11-22T01:02:26;25.53;;;12.90;;
42066;SDS011;27734;47.028;28.820;2022-11-22T01:04:57;26.37;;;13.30;;
42066;SDS011;27734;47.028;28.820;2022-11-22T01:07:29;24.97;;;12.53;;
42066;SDS011;27734;47.028;28.820;2022-11-22T01:10:00;27.03;;;12.37;;
42066;SDS011;27734;47.028;28.820;2022-11-22T01:12:31;26.90;;;12.97;;
42066;SDS011;27734;47.028;28.820;2022-11-22T01:15:03;27.53;;;13.10;;
42066;SDS011;27734;47.028;28.820;2022-11-22T01:17:36;26.57;;;12.67;;
42066;SDS011;27734;47.028;28.820;2022-11-22T01:20:09;24.33;;;12.60;;
42066;SDS011;27734;47.028;28.820;2022-11-22T01:22:41;25.37;;;12.07;;
42066;SDS011;27734;47.028;28.820;2022-11-22T01:25:12;25.60;;;12.65;;
42066;SDS011;27734;47.028;28.820;2022-11-22T01:27:43;22.45;;;10.75;;
42066;SDS011;27734;47.028;28.820;2022-11-22T01:30:15;23.20;;;11.17;;
42066;SDS011;27734;47.028;28.820;2022-11-22T01:32:47;24.13;;;11.43;;
42066;SDS011;27734;47.028;28.820;2022-11-22T01:35:19;24.47;;;11.40;;
42066;SDS011;27734;47.028;28.820;2022-11-22T01:37:50;24.80;;;11.50;;
42066;SDS011;27734;47.028;28.820;2022-11-22T01:40:21;24.53;;;11.80;;
42066;SDS011;27734;47.028;28.820;2022-11-22T01:42:53;22.00;;;10.83;;
42066;SDS011;27734;47.028;28.820;2022-11-22T01:45:43;23.52;;;11.48;;
42066;SDS011;27734;47.028;28.820;2022-11-22T01:48:21;26.23;;;13.50;;
42066;SDS011;27734;47.028;28.820;2022-11-22T01:51:01;24.97;;;12.70;;
42066;SDS011;27734;47.028;28.820;2022-11-22T01:53:35;26.03;;;12.47;;
42066;SDS011;27734;47.028;28.820;2022-11-22T01:56:08;23.50;;;11.43;;
42066;SDS011;27734;47.028;28.820;2022-11-22T01:58:41;24.10;;;11.80;;
42066;SDS011;27734;47.028;28.820;2022-11-22T02:01:16;24.10;;;11.50;;
42066;SDS011;27734;47.028;28.820;2022-11-22T02:03:47;24.93;;;12.57;;
42066;SDS011;27734;47.028;28.820;2022-11-22T02:06:20;24.23;;;11.67;;
42066;SDS011;27734;47.028;28.820;2022-11-22T02:08:55;24.50;;;11.53;;
42066;SDS011;27734;47.028;28.820;2022-11-22T02:11:30;25.67;;;12.60;;
42066;SDS011;27734;47.028;28.820;2022-11-22T02:14:05;25.00;;;11.75;;
42066;SDS011;27734;47.028;28.820;2022-11-22T02:16:37;26.60;;;13.45;;
42066;SDS011;27734;47.028;28.820;2022-11-22T02:19:12;29.30;;;14.30;;
42066;SDS011;27734;47.028;28.820;2022-11-22T02:21:48;27.63;;;13.70;;
42066;SDS011;27734;47.028;28.820;2022-11-22T02:24:24;27.03;;;13.60;;
42066;SDS011;27734;47.028;28.820;2022-11-22T02:26:59;31.05;;;14.35;;
42066;SDS011;27734;47.028;28.820;2022-11-22T02:29:31;27.60;;;13.63;;
42066;SDS011;27734;47.028;28.820;2022-11-22T02:32:03;25.33;;;12.30;;
42066;SDS011;27734;47.028;28.820;2022-11-22T02:34:41;24.87;;;11.97;;
42066;SDS011;27734;47.028;28.820;2022-11-22T02:37:13;24.87;;;12.23;;
42066;SDS011;27734;47.028;28.820;2022-11-22T02:39:50;24.03;;;12.47;;
42066;SDS011;27734;47.028;28.820;2022-11-22T02:42:25;25.83;;;12.57;;
42066;SDS011;27734;47.028;28.820;2022-11-22T02:47:28;25.77;;;11.87;;
42066;SDS011;27734;47.028;28.820;2022-11-22T02:50:00;25.03;;;11.87;;
42066;SDS011;27734;47.028;28.820;2022-11-22T02:52:31;26.63;;;12.63;;
42066;SDS011;27734;47.028;28.820;2022-11-22T02:55:02;24.73;;;11.90;;
42066;SDS011;27734;47.028;28.820;2022-11-22T02:57:34;25.50;;;12.10;;
42066;SDS011;27734;47.028;28.820;2022-11-22T03:00:07;27.87;;;12.77;;
42066;SDS011;27734;47.028;28.820;2022-11-22T03:02:39;26.30;;;13.05;;
42066;SDS011;27734;47.028;28.820;2022-11-22T03:05:10;25.03;;;12.93;;
42066;SDS011;27734;47.028;28.820;2022-11-22T03:07:42;26.80;;;13.17;;
42066;SDS011;27734;47.028;28.820;2022-11-22T03:12:44;29.45;;;14.00;;
42066;SDS011;27734;47.028;28.820;2022-11-22T03:15:15;29.40;;;14.27;;
42066;SDS011;27734;47.028;28.820;2022-11-22T03:17:46;26.47;;;13.13;;
42066;SDS011;27734;47.028;28.820;2022-11-22T03:20:17;25.20;;;12.23;;
42066;SDS011;27734;47.028;28.820;2022-11-22T03:22:48;27.13;;;13.60;;
42066;SDS011;27734;47.028;28.820;2022-11-22T03:25:20;27.80;;;14.13;;
42066;SDS011;27734;47.028;28.820;2022-11-22T03:27:51;26.70;;;13.67;;
42066;SDS011;27734;47.028;28.820;2022-11-22T03:30:22;26.93;;;13.23;;
42066;SDS011;27734;47.028;28.820;2022-11-22T03:32:54;29.13;;;14.33;;
42066;SDS011;27734;47.028;28.820;2022-11-22T03:35:25;26.00;;;13.20;;
42066;SDS011;27734;47.028;28.820;2022-11-22T03:37:56;33.27;;;16.03;;
42066;SDS011;27734;47.028;28.820;2022-11-22T03:40:27;27.13;;;13.43;;
42066;SDS011;27734;47.028;28.820;2022-11-22T03:42:59;31.30;;;15.33;;
42066;SDS011;27734;47.028;28.820;2022-11-22T03:45:31;30.87;;;14.77;;
42066;SDS011;27734;47.028;28.820;2022-11-22T03:48:02;29.97;;;14.97;;
42066;SDS011;27734;47.028;28.820;2022-11-22T03:50:33;29.57;;;13.90;;
42066;SDS011;27734;47.028;28.820;2022-11-22T03:53:04;29.53;;;14.17;;
42066;SDS011;27734;47.028;28.820;2022-11-22T03:55:36;28.43;;;14.27;;
42066;SDS011;27734;47.028;28.820;2022-11-22T03:58:07;31.13;;;14.73;;
42066;SDS011;27734;47.028;28.820;2022-11-22T04:00:39;28.60;;;13.53;;
42066;SDS011;27734;47.028;28.820;2022-11-22T04:03:10;30.80;;;14.97;;
42066;SDS011;27734;47.028;28.820;2022-11-22T04:05:41;30.83;;;14.67;;
42066;SDS011;27734;47.028;28.820;2022-11-22T04:08:12;29.27;;;14.67;;
42066;SDS011;27734;47.028;28.820;2022-11-22T04:10:43;32.70;;;15.10;;
42066;SDS011;27734;47.028;28.820;2022-11-22T04:13:16;30.33;;;14.73;;
42066;SDS011;27734;47.028;28.820;2022-11-22T04:15:47;30.33;;;14.63;;
42066;SDS011;27734;47.028;28.820;2022-11-22T04:18:18;30.47;;;14.30;;
42066;SDS011;27734;47.028;28.820;2022-11-22T04:20:50;35.70;;;16.30;;
42066;SDS011;27734;47.028;28.820;2022-11-22T04:23:38;30.40;;;14.73;;
42066;SDS011;27734;47.028;28.820;2022-11-22T04:26:29;30.43;;;14.20;;
42066;SDS011;27734;47.028;28.820;2022-11-22T04:29:01;27.67;;;13.00;;
42066;SDS011;27734;47.028;28.820;2022-11-22T04:31:32;30.23;;;13.67;;
42066;SDS011;27734;47.028;28.820;2022-11-22T04:34:21;29.40;;;13.20;;
42066;SDS011;27734;47.028;28.820;2022-11-22T04:36:52;30.60;;;14.87;;
42066;SDS011;27734;47.028;28.820;2022-11-22T04:39:23;30.40;;;14.70;;
42066;SDS011;27734;47.028;28.820;2022-11-22T04:41:54;34.53;;;16.30;;
42066;SDS011;27734;47.028;28.820;2022-11-22T04:44:44;34.27;;;16.43;;
42066;SDS011;27734;47.028;28.820;2022-11-22T04:47:16;32.60;;;16.37;;
42066;SDS011;27734;47.028;28.820;2022-11-22T04:50:01;36.77;;;17.30;;
42066;SDS011;27734;47.028;28.820;2022-11-22T04:52:55;37.70;;;17.63;;
42066;SDS011;27734;47.028;28.820;2022-11-22T04:55:26;33.67;;;16.93;;
42066;SDS011;27734;47.028;28.820;2022-11-22T04:57:57;33.23;;;16.33;;
42066;SDS011;27734;47.028;28.820;2022-11-22T05:00:29;32.07;;;15.70;;
42066;SDS011;27734;47.028;28.820;2022-11-22T05:03:01;32.90;;;15.20;;
42066;SDS011;27734;47.028;28.820;2022-11-22T05:05:34;33.00;;;15.13;;
42066;SDS011;27734;47.028;28.820;2022-11-22T05:08:07;30.43;;;14.93;;
42066;SDS011;27734;47.028;28.820;2022-11-22T05:10:39;32.90;;;15.50;;
42066;SDS011;27734;47.028;28.820;2022-11-22T05:13:27;31.13;;;14.40;;
42066;SDS011;27734;47.028;28.820;2022-11-22T05:16:00;30.80;;;15.37;;
42066;SDS011;27734;47.028;28.820;2022-11-22T05:18:33;29.63;;;14.80;;
42066;SDS011;27734;47.028;28.820;2022-11-22T05:21:05;33.87;;;15.77;;
42066;SDS011;27734;47.028;28.820;2022-11-22T05:23:38;37.80;;;17.27;;
42066;SDS011;27734;47.028;28.820;2022-11-22T05:26:25;40.20;;;19.40;;
42066;SDS011;27734;47.028;28.820;2022-11-22T05:28:58;36.60;;;16.03;;
42066;SDS011;27734;47.028;28.820;2022-11-22T05:31:31;31.23;;;15.70;;
42066;SDS011;27734;47.028;28.820;2022-11-22T05:34:05;31.53;;;14.43;;
42066;SDS011;27734;47.028;28.820;2022-11-22T05:36:36;32.80;;;15.55;;
42066;SDS011;27734;47.028;28.820;2022-11-22T05:39:08;39.93;;;18.47;;
42066;SDS011;27734;47.028;28.820;2022-11-22T05:41:39;39.33;;;19.73;;
42066;SDS011;27734;47.028;28.820;2022-11-22T05:44:22;41.93;;;18.97;;
42066;SDS011;27734;47.028;28.820;2022-11-22T05:46:54;38.53;;;16.67;;
42066;SDS011;27734;47.028;28.820;2022-11-22T05:49:25;37.83;;;16.20;;
42066;SDS011;27734;47.028;28.820;2022-11-22T05:51:56;38.93;;;16.93;;
42066;SDS011;27734;47.028;28.820;2022-11-22T05:54:27;30.83;;;14.63;;
42066;SDS011;27734;47.028;28.820;2022-11-22T05:56:59;29.53;;;13.37;;
42066;SDS011;27734;47.028;28.820;2022-11-22T05:59:30;31.80;;;15.60;;
42066;SDS011;27734;47.028;28.820;2022-11-22T06:02:01;34.07;;;15.60;;
42066;SDS011;27734;47.028;28.820;2022-11-22T06:04:32;32.47;;;15.23;;
42066;SDS011;27734;47.028;28.820;2022-11-22T06:07:04;33.50;;;15.53;;
42066;SDS011;27734;47.028;28.820;2022-11-22T06:09:35;32.30;;;16.00;;
42066;SDS011;27734;47.028;28.820;2022-11-22T06:12:07;30.23;;;14.37;;
42066;SDS011;27734;47.028;28.820;2022-11-22T06:14:38;30.83;;;14.97;;
42066;SDS011;27734;47.028;28.820;2022-11-22T06:17:16;31.07;;;15.40;;
42066;SDS011;27734;47.028;28.820;2022-11-22T06:19:49;30.93;;;14.97;;
42066;SDS011;27734;47.028;28.820;2022-11-22T06:22:21;32.10;;;15.33;;
42066;SDS011;27734;47.028;28.820;2022-11-22T06:24:52;28.53;;;13.93;;
42066;SDS011;27734;47.028;28.820;2022-11-22T06:27:23;34.50;;;15.77;;
42066;SDS011;27734;47.028;28.820;2022-11-22T06:29:54;31.67;;;15.03;;
42066;SDS011;27734;47.028;28.820;2022-11-22T06:32:26;33.80;;;16.70;;
42066;SDS011;27734;47.028;28.820;2022-11-22T06:35:00;34.23;;;16.37;;
42066;SDS011;27734;47.028;28.820;2022-11-22T06:37:31;31.67;;;14.27;;
42066;SDS011;27734;47.028;28.820;2022-11-22T06:40:03;33.33;;;15.60;;
42066;SDS011;27734;47.028;28.820;2022-11-22T06:42:39;32.03;;;15.17;;
42066;SDS011;27734;47.028;28.820;2022-11-22T06:45:13;33.50;;;16.57;;
42066;SDS011;27734;47.028;28.820;2022-11-22T06:47:45;29.77;;;13.87;;
42066;SDS011;27734;47.028;28.820;2022-11-22T06:50:16;28.50;;;13.37;;
42066;SDS011;27734;47.028;28.820;2022-11-22T06:52:50;32.83;;;14.77;;
42066;SDS011;27734;47.028;28.820;2022-11-22T06:55:26;27.90;;;13.50;;
42066;SDS011;27734;47.028;28.820;2022-11-22T06:57:57;27.07;;;13.20;;
42066;SDS011;27734;47.028;28.820;2022-11-22T07:00:28;30.80;;;15.03;;
42066;SDS011;27734;47.028;28.820;2022-11-22T07:03:00;30.83;;;15.17;;
42066;SDS011;27734;47.028;28.820;2022-11-22T07:05:32;33.97;;;16.60;;
42066;SDS011;27734;47.028;28.820;2022-11-22T07:08:03;30.07;;;15.87;;
42066;SDS011;27734;47.028;28.820;2022-11-22T07:10:36;28.60;;;14.20;;
42066;SDS011;27734;47.028;28.820;2022-11-22T07:13:08;29.93;;;14.57;;
42066;SDS011;27734;47.028;28.820;2022-11-22T07:15:40;31.23;;;15.60;;
42066;SDS011;27734;47.028;28.820;2022-11-22T07:18:13;29.77;;;14.90;;
42066;SDS011;27734;47.028;28.820;2022-11-22T07:20:49;30.00;;;15.00;;
42066;SDS011;27734;47.028;28.820;2022-11-22T07:23:32;32.23;;;15.33;;
42066;SDS011;27734;47.028;28.820;2022-11-22T07:28:35;30.80;;;14.87;;
42066;SDS011;27734;47.028;28.820;2022-11-22T07:31:10;31.13;;;14.83;;
42066;SDS011;27734;47.028;28.820;2022-11-22T07:36:35;28.03;;;13.87;;
42066;SDS011;27734;47.028;28.820;2022-11-22T07:39:15;29.03;;;14.73;;
42066;SDS011;27734;47.028;28.820;2022-11-22T07:41:47;31.07;;;15.70;;
42066;SDS011;27734;47.028;28.820;2022-11-22T07:44:28;33.93;;;16.67;;
42066;SDS011;27734;47.028;28.820;2022-11-22T07:47:09;29.70;;;15.80;;
42066;SDS011;27734;47.028;28.820;2022-11-22T07:49:41;31.00;;;15.40;;
42066;SDS011;27734;47.028;28.820;2022-11-22T07:52:15;33.85;;;17.40;;
42066;SDS011;27734;47.028;28.820;2022-11-22T07:54:48;35.30;;;15.90;;
42066;SDS011;27734;47.028;28.820;2022-11-22T07:57:25;33.87;;;16.73;;
42066;SDS011;27734;47.028;28.820;2022-11-22T08:00:06;28.70;;;15.20;;
42066;SDS011;27734;47.028;28.820;2022-11-22T08:02:40;35.47;;;17.50;;
42066;SDS011;27734;47.028;28.820;2022-11-22T08:05:14;30.48;;;16.62;;
42066;SDS011;27734;47.028;28.820;2022-11-22T08:07:49;37.00;;;17.13;;
42066;SDS011;27734;47.028;28.820;2022-11-22T08:10:25;32.17;;;17.23;;
42066;SDS011;27734;47.028;28.820;2022-11-22T08:13:00;33.47;;;17.60;;
42066;SDS011;27734;47.028;28.820;2022-11-22T08:15:35;33.30;;;16.67;;
42066;SDS011;27734;47.028;28.820;2022-11-22T08:18:07;34.13;;;17.70;;
42066;SDS011;27734;47.028;28.820;2022-11-22T08:20:40;35.00;;;17.57;;
42066;SDS011;27734;47.028;28.820;2022-11-22T08:23:11;34.60;;;17.87;;
42066;SDS011;27734;47.028;28.820;2022-11-22T08:25:49;32.60;;;16.87;;
42066;SDS011;27734;47.028;28.820;2022-11-22T08:28:23;33.37;;;17.07;;
42066;SDS011;27734;47.028;28.820;2022-11-22T08:31:09;35.07;;;18.10;;
42066;SDS011;27734;47.028;28.820;2022-11-22T08:33:41;35.93;;;17.67;;
42066;SDS011;27734;47.028;28.820;2022-11-22T08:36:15;30.57;;;15.53;;
42066;SDS011;27734;47.028;28.820;2022-11-22T08:38:53;31.70;;;17.07;;
42066;SDS011;27734;47.028;28.820;2022-11-22T08:41:25;33.57;;;17.07;;
42066;SDS011;27734;47.028;28.820;2022-11-22T08:44:01;30.90;;;16.25;;
42066;SDS011;27734;47.028;28.820;2022-11-22T08:46:34;37.80;;;17.45;;
42066;SDS011;27734;47.028;28.820;2022-11-22T08:49:06;28.00;;;14.13;;
42066;SDS011;27734;47.028;28.820;2022-11-22T08:51:39;31.07;;;16.70;;
42066;SDS011;27734;47.028;28.820;2022-11-22T08:54:37;30.35;;;15.58;;
42066;SDS011;27734;47.028;28.820;2022-11-22T08:57:18;34.07;;;18.00;;
42066;SDS011;27734;47.028;28.820;2022-11-22T08:59:51;34.57;;;19.40;;
42066;SDS011;27734;47.028;28.820;2022-11-22T09:02:23;34.77;;;18.60;;
42066;SDS011;27734;47.028;28.820;2022-11-22T09:04:59;34.20;;;18.40;;
42066;SDS011;27734;47.028;28.820;2022-11-22T09:07:35;36.33;;;19.17;;
42066;SDS011;27734;47.028;28.820;2022-11-22T09:10:09;37.47;;;19.67;;
42066;SDS011;27734;47.028;28.820;2022-11-22T09:12:46;33.90;;;17.83;;
42066;SDS011;27734;47.028;28.820;2022-11-22T09:15:20;35.87;;;19.40;;
42066;SDS011;27734;47.028;28.820;2022-11-22T09:18:00;34.93;;;18.47;;
42066;SDS011;27734;47.028;28.820;2022-11-22T09:20:39;38.53;;;19.00;;
42066;SDS011;27734;47.028;28.820;2022-11-22T09:23:12;33.67;;;18.40;;
42066;SDS011;27734;47.028;28.820;2022-11-22T09:25:48;35.27;;;18.77;;
42066;SDS011;27734;47.028;28.820;2022-11-22T09:28:27;33.37;;;17.30;;
42066;SDS011;27734;47.028;28.820;2022-11-22T09:31:00;31.70;;;17.03;;
42066;SDS011;27734;47.028;28.820;2022-11-22T09:33:33;33.20;;;18.03;;
42066;SDS011;27734;47.028;28.820;2022-11-22T09:36:07;34.47;;;18.87;;
42066;SDS011;27734;47.028;28.820;2022-11-22T09:38:41;38.45;;;18.42;;
42066;SDS011;27734;47.028;28.820;2022-11-22T09:41:18;32.67;;;17.67;;
42066;SDS011;27734;47.028;28.820;2022-11-22T09:44:12;30.40;;;16.33;;
42066;SDS011;27734;47.028;28.820;2022-11-22T09:46:53;31.63;;;16.67;;
42066;SDS011;27734;47.028;28.820;2022-11-22T09:49:37;27.97;;;14.77;;
42066;SDS011;27734;47.028;28.820;2022-11-22T09:52:23;31.10;;;15.23;;
42066;SDS011;27734;47.028;28.820;2022-11-22T09:55:03;27.37;;;14.80;;
42066;SDS011;27734;47.028;28.820;2022-11-22T09:57:47;30.23;;;14.70;;
42066;SDS011;27734;47.028;28.820;2022-11-22T10:00:32;28.03;;;15.10;;
42066;SDS011;27734;47.028;28.820;2022-11-22T10:03:07;27.57;;;14.93;;
42066;SDS011;27734;47.028;28.820;2022-11-22T10:06:05;29.13;;;15.60;;
42066;SDS011;27734;47.028;28.820;2022-11-22T10:08:43;26.77;;;14.60;;
42066;SDS011;27734;47.028;28.820;2022-11-22T10:11:24;29.07;;;14.73;;
42066;SDS011;27734;47.028;28.820;2022-11-22T10:14:04;28.20;;;15.37;;
42066;SDS011;27734;47.028;28.820;2022-11-22T10:16:45;26.43;;;13.97;;
42066;SDS011;27734;47.028;28.820;2022-11-22T10:19:24;30.80;;;15.30;;
42066;SDS011;27734;47.028;28.820;2022-11-22T10:22:00;28.30;;;14.13;;
42066;SDS011;27734;47.028;28.820;2022-11-22T10:24:43;27.63;;;13.80;;
42066;SDS011;27734;47.028;28.820;2022-11-22T10:27:26;26.97;;;14.47;;
42066;SDS011;27734;47.028;28.820;2022-11-22T10:30:04;26.17;;;13.43;;
42066;SDS011;27734;47.028;28.820;2022-11-22T10:35:31;25.97;;;14.03;;
42066;SDS011;27734;47.028;28.820;2022-11-22T10:38:33;26.90;;;14.13;;
42066;SDS011;27734;47.028;28.820;2022-11-22T10:41:27;26.77;;;14.10;;
42066;SDS011;27734;47.028;28.820;2022-11-22T10:44:12;28.10;;;14.43;;
42066;SDS011;27734;47.028;28.820;2022-11-22T10:46:53;26.70;;;14.20;;
42066;SDS011;27734;47.028;28.820;2022-11-22T10:49:48;25.97;;;14.07;;
42066;SDS011;27734;47.028;28.820;2022-11-22T10:52:28;26.57;;;14.73;;
42066;SDS011;27734;47.028;28.820;2022-11-22T10:55:16;27.23;;;15.00;;
42066;SDS011;27734;47.028;28.820;2022-11-22T10:58:00;28.87;;;15.27;;
42066;SDS011;27734;47.028;28.820;2022-11-22T11:00:36;28.43;;;14.83;;
42066;SDS011;27734;47.028;28.820;2022-11-22T11:03:14;26.57;;;14.00;;
42066;SDS011;27734;47.028;28.820;2022-11-22T11:14:11;23.40;;;12.13;;
42066;SDS011;27734;47.028;28.820;2022-11-22T11:16:56;22.07;;;11.87;;
42066;SDS011;27734;47.028;28.820;2022-11-22T11:19:33;23.30;;;12.43;;
42066;SDS011;27734;47.028;28.820;2022-11-22T11:22:14;23.50;;;11.13;;
42066;SDS011;27734;47.028;28.820;2022-11-22T11:24:51;25.53;;;12.03;;
42066;SDS011;27734;47.028;28.820;2022-11-22T11:27:26;26.53;;;12.77;;
42066;SDS011;27734;47.028;28.820;2022-11-22T11:30:02;23.87;;;12.27;;
42066;SDS011;27734;47.028;28.820;2022-11-22T11:32:49;25.07;;;12.83;;
42066;SDS011;27734;47.028;28.820;2022-11-22T11:35:26;25.47;;;13.20;;
42066;SDS011;27734;47.028;28.820;2022-11-22T11:38:09;24.13;;;12.30;;
42066;SDS011;27734;47.028;28.820;2022-11-22T11:41:27;25.17;;;13.23;;
42066;SDS011;27734;47.028;28.820;2022-11-22T11:44:23;32.80;;;15.40;;
42066;SDS011;27734;47.028;28.820;2022-11-22T11:47:01;26.10;;;12.87;;
42066;SDS011;27734;47.028;28.820;2022-11-22T11:49:33;27.27;;;12.60;;
42066;SDS011;27734;47.028;28.820;2022-11-22T11:52:05;27.50;;;13.50;;
42066;SDS011;27734;47.028;28.820;2022-11-22T11:54:46;26.17;;;13.87;;
42066;SDS011;27734;47.028;28.820;2022-11-22T11:57:26;26.10;;;13.80;;
42066;SDS011;27734;47.028;28.820;2022-11-22T11:59:59;26.33;;;13.73;;
42066;SDS011;27734;47.028;28.820;2022-11-22T12:02:37;26.67;;;13.57;;
42066;SDS011;27734;47.028;28.820;2022-11-22T12:05:24;26.33;;;14.17;;
42066;SDS011;27734;47.028;28.820;2022-11-22T12:08:09;27.03;;;13.90;;
42066;SDS011;27734;47.028;28.820;2022-11-22T12:11:04;26.00;;;13.97;;
42066;SDS011;27734;47.028;28.820;2022-11-22T12:13:55;26.60;;;14.30;;
42066;SDS011;27734;47.028;28.820;2022-11-22T12:16:30;27.13;;;14.20;;
42066;SDS011;27734;47.028;28.820;2022-11-22T12:19:11;26.07;;;13.90;;
42066;SDS011;27734;47.028;28.820;2022-11-22T12:21:55;28.13;;;14.07;;
42066;SDS011;27734;47.028;28.820;2022-11-22T12:24:34;27.07;;;14.63;;
42066;SDS011;27734;47.028;28.820;2022-11-22T12:27:09;28.53;;;14.60;;
42066;SDS011;27734;47.028;28.820;2022-11-22T12:32:38;27.47;;;14.07;;
42066;SDS011;27734;47.028;28.820;2022-11-22T12:37:55;26.60;;;13.73;;
42066;SDS011;27734;47.028;28.820;2022-11-22T12:41:02;25.50;;;13.45;;
42066;SDS011;27734;47.028;28.820;2022-11-22T12:43:41;26.53;;;13.67;;
42066;SDS011;27734;47.028;28.820;2022-11-22T12:46:22;25.73;;;14.37;;
42066;SDS011;27734;47.028;28.820;2022-11-22T12:48:59;26.50;;;14.20;;
42066;SDS011;27734;47.028;28.820;2022-11-22T12:51:38;23.53;;;12.57;;
42066;SDS011;27734;47.028;28.820;2022-11-22T12:54:17;26.13;;;13.63;;
42066;SDS011;27734;47.028;28.820;2022-11-22T12:56:57;29.30;;;15.67;;
42066;SDS011;27734;47.028;28.820;2022-11-22T12:59:35;28.60;;;15.00;;
42066;SDS011;27734;47.028;28.820;2022-11-22T13:02:14;26.63;;;13.67;;
42066;SDS011;27734;47.028;28.820;2022-11-22T13:04:55;25.13;;;13.47;;
42066;SDS011;27734;47.028;28.820;2022-11-22T13:07:38;25.97;;;13.67;;
42066;SDS011;27734;47.028;28.820;2022-11-22T13:10:27;23.87;;;12.20;;
42066;SDS011;27734;47.028;28.820;2022-11-22T13:13:09;24.03;;;12.63;;
42066;SDS011;27734;47.028;28.820;2022-11-22T13:15:50;25.37;;;12.73;;
42066;SDS011;27734;47.028;28.820;2022-11-22T13:18:29;25.20;;;12.10;;
42066;SDS011;27734;47.028;28.820;2022-11-22T13:49:44;24.65;;;12.55;;
42066;SDS011;27734;47.028;28.820;2022-11-22T13:55:34;24.60;;;11.85;;
42066;SDS011;27734;47.028;28.820;2022-11-22T14:07:26;26.93;;;14.07;;
42066;SDS011;27734;47.028;28.820;2022-11-22T14:10:30;28.73;;;14.60;;
42066;SDS011;27734;47.028;28.820;2022-11-22T14:13:12;30.20;;;14.73;;
42066;SDS011;27734;47.028;28.820;2022-11-22T14:16:08;26.97;;;14.47;;
42066;SDS011;27734;47.028;28.820;2022-11-22T14:19:22;28.27;;;14.80;;
42066;SDS011;27734;47.028;28.820;2022-11-22T14:22:08;29.17;;;14.83;;
42066;SDS011;27734;47.028;28.820;2022-11-22T14:25:04;27.30;;;14.57;;
42066;SDS011;27734;47.028;28.820;2022-11-22T14:27:50;31.80;;;15.20;;
42066;SDS011;27734;47.028;28.820;2022-11-22T14:30:38;27.50;;;13.83;;
42066;SDS011;27734;47.028;28.820;2022-11-22T14:33:15;28.37;;;15.53;;
42066;SDS011;27734;47.028;28.820;2022-11-22T14:38:47;28.53;;;13.90;;
42066;SDS011;27734;47.028;28.820;2022-11-22T14:44:32;27.60;;;14.00;;
42066;SDS011;27734;47.028;28.820;2022-11-22T14:47:05;26.30;;;13.67;;
42066;SDS011;27734;47.028;28.820;2022-11-22T14:49:44;30.90;;;16.33;;
42066;SDS011;27734;47.028;28.820;2022-11-22T14:52:19;35.87;;;17.77;;
42066;SDS011;27734;47.028;28.820;2022-11-22T14:54:54;37.20;;;18.23;;
42066;SDS011;27734;47.028;28.820;2022-11-22T14:57:29;35.13;;;18.13;;
42066;SDS011;27734;47.028;28.820;2022-11-22T15:00:18;36.10;;;18.37;;
42066;SDS011;27734;47.028;28.820;2022-11-22T15:05:54;37.47;;;17.80;;
42066;SDS011;27734;47.028;28.820;2022-11-22T15:08:36;38.03;;;19.57;;
42066;SDS011;27734;47.028;28.820;2022-11-22T15:17:47;39.73;;;21.37;;
42066;SDS011;27734;47.028;28.820;2022-11-22T15:20:33;38.60;;;18.87;;
42066;SDS011;27734;47.028;28.820;2022-11-22T15:23:12;39.40;;;20.90;;
42066;SDS011;27734;47.028;28.820;2022-11-22T15:25:59;38.00;;;19.97;;
42066;SDS011;27734;47.028;28.820;2022-11-22T15:28:43;39.60;;;22.70;;
42066;SDS011;27734;47.028;28.820;2022-11-22T15:31:16;39.60;;;21.57;;
42066;SDS011;27734;47.028;28.820;2022-11-22T15:33:52;35.70;;;18.63;;
42066;SDS011;27734;47.028;28.820;2022-11-22T15:39:26;40.63;;;21.83;;
42066;SDS011;27734;47.028;28.820;2022-11-22T15:42:05;74.43;;;41.23;;
42066;SDS011;27734;47.028;28.820;2022-11-22T15:44:45;52.95;;;28.35;;
42066;SDS011;27734;47.028;28.820;2022-11-22T15:47:18;45.37;;;23.53;;
42066;SDS011;27734;47.028;28.820;2022-11-22T15:49:51;44.30;;;23.00;;
42066;SDS011;27734;47.028;28.820;2022-11-22T15:52:23;43.67;;;24.17;;
42066;SDS011;27734;47.028;28.820;2022-11-22T15:54:58;57.23;;;28.93;;
42066;SDS011;27734;47.028;28.820;2022-11-22T15:57:31;62.97;;;34.40;;
42066;SDS011;27734;47.028;28.820;2022-11-22T16:00:10;59.17;;;32.40;;
42066;SDS011;27734;47.028;28.820;2022-11-22T16:02:50;79.93;;;42.83;;
42066;SDS011;27734;47.028;28.820;2022-11-22T16:05:25;74.00;;;36.67;;
42066;SDS011;27734;47.028;28.820;2022-11-22T16:08:01;57.70;;;33.73;;
42066;SDS011;27734;47.028;28.820;2022-11-22T16:10:34;54.77;;;28.90;;
42066;SDS011;27734;47.028;28.820;2022-11-22T16:13:20;59.27;;;31.37;;
42066;SDS011;27734;47.028;28.820;2022-11-22T16:16:16;57.67;;;31.90;;
42066;SDS011;27734;47.028;28.820;2022-11-22T16:18:51;62.05;;;32.50;;
42066;SDS011;27734;47.028;28.820;2022-11-22T16:21:53;64.47;;;36.50;;
42066;SDS011;27734;47.028;28.820;2022-11-22T16:24:26;71.42;;;37.80;;
42066;SDS011;27734;47.028;28.820;2022-11-22T16:26:59;73.37;;;39.73;;
42066;SDS011;27734;47.028;28.820;2022-11-22T16:29:33;65.87;;;36.63;;